sensor_id;sensor_type;location;lat;lon;timestamp;pressure;altitude;pressure_sealevel;temperature;humidity
54270;BME280;40181;51.560;13.000;2024-03-29T00:01:40;99078.59;;;8.16;76.37
54270;BME280;40181;51.560;13.000;2024-03-29T00:04:06;99070.75;;;8.02;76.56
54270;BME280;40181;51.560;13.000;2024-03-29T00:06:33;99078.59;;;8.21;76.32
54270;BME280;40181;51.560;13.000;2024-03-29T00:08:59;99066.41;;;7.99;76.04
54270;BME280;40181;51.560;13.000;2024-03-29T00:11:26;99078.59;;;8.13;75.86
54270;BME280;40181;51.560;13.000;2024-03-29T00:13:53;99071.59;;;8.26;76.02
54270;BME280;40181;51.560;13.000;2024-03-29T00:16:22;99077.72;;;8.08;74.78
54270;BME280;40181;51.560;13.000;2024-03-29T00:18:48;99082.94;;;8.09;75.15
54270;BME280;40181;51.560;13.000;2024-03-29T00:21:15;99083.81;;;8.13;75.03
54270;BME280;40181;51.560;13.000;2024-03-29T00:23:41;99082.94;;;8.06;74.47
54270;BME280;40181;51.560;13.000;2024-03-29T00:26:08;99077.72;;;8.20;74.09
54270;BME280;40181;51.560;13.000;2024-03-29T00:28:35;99077.72;;;8.05;74.08
54270;BME280;40181;51.560;13.000;2024-03-29T00:31:01;99080.31;;;8.19;73.64
54270;BME280;40181;51.560;13.000;2024-03-29T00:33:30;99078.59;;;8.35;73.02
54270;BME280;40181;51.560;13.000;2024-03-29T00:35:57;99079.44;;;8.26;72.32
54270;BME280;40181;51.560;13.000;2024-03-29T00:38:23;99090.78;;;8.09;72.55
54270;BME280;40181;51.560;13.000;2024-03-29T00:40:50;99092.53;;;8.30;71.78
54270;BME280;40181;51.560;13.000;2024-03-29T00:43:16;99087.31;;;8.24;72.48
54270;BME280;40181;51.560;13.000;2024-03-29T00:45:44;99095.16;;;8.20;71.64
54270;BME280;40181;51.560;13.000;2024-03-29T00:48:10;99097.78;;;8.18;71.53
54270;BME280;40181;51.560;13.000;2024-03-29T00:50:39;99103.88;;;8.14;72.48
54270;BME280;40181;51.560;13.000;2024-03-29T00:53:06;99102.97;;;8.35;71.56
54270;BME280;40181;51.560;13.000;2024-03-29T00:55:33;99086.41;;;8.27;71.08
54270;BME280;40181;51.560;13.000;2024-03-29T00:57:59;99081.16;;;8.41;70.82
54270;BME280;40181;51.560;13.000;2024-03-29T01:00:27;99089.03;;;8.27;71.63
54270;BME280;40181;51.560;13.000;2024-03-29T01:02:53;99082.94;;;8.29;71.70
54270;BME280;40181;51.560;13.000;2024-03-29T01:05:20;99088.19;;;8.22;71.34
54270;BME280;40181;51.560;13.000;2024-03-29T01:07:49;99083.81;;;8.28;71.10
54270;BME280;40181;51.560;13.000;2024-03-29T01:10:16;99086.44;;;8.21;71.33
54270;BME280;40181;51.560;13.000;2024-03-29T01:12:42;99089.94;;;8.15;71.27
54270;BME280;40181;51.560;13.000;2024-03-29T01:15:09;99105.59;;;7.96;71.73
54270;BME280;40181;51.560;13.000;2024-03-29T01:17:35;99086.44;;;8.08;71.60
54270;BME280;40181;51.560;13.000;2024-03-29T01:20:02;99086.44;;;7.99;72.14
54270;BME280;40181;51.560;13.000;2024-03-29T01:22:29;99092.53;;;7.82;73.27
54270;BME280;40181;51.560;13.000;2024-03-29T01:24:58;99096.91;;;8.02;72.41
54270;BME280;40181;51.560;13.000;2024-03-29T01:27:24;99095.13;;;8.10;72.37
54270;BME280;40181;51.560;13.000;2024-03-29T01:29:51;99102.97;;;7.78;72.56
54270;BME280;40181;51.560;13.000;2024-03-29T01:32:17;99100.38;;;7.92;72.09
54270;BME280;40181;51.560;13.000;2024-03-29T01:34:44;99110.84;;;7.85;72.28
54270;BME280;40181;51.560;13.000;2024-03-29T01:37:10;99110.84;;;8.13;71.87
54270;BME280;40181;51.560;13.000;2024-03-29T01:39:37;99104.75;;;8.07;71.52
54270;BME280;40181;51.560;13.000;2024-03-29T01:42:06;99106.50;;;8.03;71.52
54270;BME280;40181;51.560;13.000;2024-03-29T01:44:33;99114.34;;;7.94;71.49
54270;BME280;40181;51.560;13.000;2024-03-29T01:46:59;99109.09;;;8.14;71.03
54270;BME280;40181;51.560;13.000;2024-03-29T01:49:26;99115.19;;;7.91;71.60
54270;BME280;40181;51.560;13.000;2024-03-29T01:51:54;99122.19;;;8.14;71.14
54270;BME280;40181;51.560;13.000;2024-03-29T01:54:21;99117.81;;;8.17;70.88
54270;BME280;40181;51.560;13.000;2024-03-29T01:56:48;99116.94;;;8.19;70.97
54270;BME280;40181;51.560;13.000;2024-03-29T01:59:18;99115.22;;;7.96;71.15
54270;BME280;40181;51.560;13.000;2024-03-29T02:01:45;99108.22;;;8.06;71.46
54270;BME280;40181;51.560;13.000;2024-03-29T02:04:12;99113.47;;;8.21;71.37
54270;BME280;40181;51.560;13.000;2024-03-29T02:06:38;99106.47;;;7.91;71.07
54270;BME280;40181;51.560;13.000;2024-03-29T02:09:05;99108.22;;;8.02;71.53
54270;BME280;40181;51.560;13.000;2024-03-29T02:11:32;99116.09;;;8.09;71.00
54270;BME280;40181;51.560;13.000;2024-03-29T02:13:59;99112.56;;;7.79;71.48
54270;BME280;40181;51.560;13.000;2024-03-29T02:16:28;99109.09;;;8.15;70.74
54270;BME280;40181;51.560;13.000;2024-03-29T02:18:54;99104.75;;;8.00;71.18
54270;BME280;40181;51.560;13.000;2024-03-29T02:21:21;99093.41;;;8.00;70.55
54270;BME280;40181;51.560;13.000;2024-03-29T02:23:57;99090.78;;;7.91;71.04
54270;BME280;40181;51.560;13.000;2024-03-29T02:26:25;99107.34;;;8.22;70.19
54270;BME280;40181;51.560;13.000;2024-03-29T02:28:52;99094.31;;;8.11;70.32
54270;BME280;40181;51.560;13.000;2024-03-29T02:31:18;99103.88;;;8.00;70.27
54270;BME280;40181;51.560;13.000;2024-03-29T02:33:45;99116.94;;;7.89;70.54
54270;BME280;40181;51.560;13.000;2024-03-29T02:36:11;99118.69;;;8.02;70.56
54270;BME280;40181;51.560;13.000;2024-03-29T02:38:38;99124.81;;;7.98;70.33
54270;BME280;40181;51.560;13.000;2024-03-29T02:41:07;99121.31;;;8.13;70.58
54270;BME280;40181;51.560;13.000;2024-03-29T02:43:33;99119.56;;;8.22;69.58
54270;BME280;40181;51.560;13.000;2024-03-29T02:46:00;99130.91;;;8.22;69.98
54270;BME280;40181;51.560;13.000;2024-03-29T02:48:27;99123.06;;;8.14;70.08
54270;BME280;40181;51.560;13.000;2024-03-29T02:50:53;99126.53;;;8.10;70.22
54270;BME280;40181;51.560;13.000;2024-03-29T02:53:20;99131.75;;;7.98;70.08
54270;BME280;40181;51.560;13.000;2024-03-29T02:55:46;99137.88;;;8.09;70.75
54270;BME280;40181;51.560;13.000;2024-03-29T02:58:15;99145.75;;;8.12;70.17
54270;BME280;40181;51.560;13.000;2024-03-29T03:00:42;99151.81;;;7.86;70.72
54270;BME280;40181;51.560;13.000;2024-03-29T03:03:08;99149.22;;;8.07;70.03
54270;BME280;40181;51.560;13.000;2024-03-29T03:05:35;99148.34;;;8.11;69.81
54270;BME280;40181;51.560;13.000;2024-03-29T03:08:02;99142.22;;;7.96;70.46
54270;BME280;40181;51.560;13.000;2024-03-29T03:10:47;99148.34;;;7.98;70.57
54270;BME280;40181;51.560;13.000;2024-03-29T03:13:26;99147.47;;;8.09;69.88
54270;BME280;40181;51.560;13.000;2024-03-29T03:15:53;99127.41;;;7.92;71.06
54270;BME280;40181;51.560;13.000;2024-03-29T03:18:20;99130.00;;;7.91;69.77
54270;BME280;40181;51.560;13.000;2024-03-29T03:20:50;99125.69;;;8.14;70.25
54270;BME280;40181;51.560;13.000;2024-03-29T03:23:17;99131.75;;;7.87;69.92
54270;BME280;40181;51.560;13.000;2024-03-29T03:25:44;99140.50;;;8.03;69.64
54270;BME280;40181;51.560;13.000;2024-03-29T03:28:10;99116.94;;;8.11;69.09
54270;BME280;40181;51.560;13.000;2024-03-29T03:30:40;99120.41;;;7.85;69.63
54270;BME280;40181;51.560;13.000;2024-03-29T03:33:07;99120.44;;;8.02;69.23
54270;BME280;40181;51.560;13.000;2024-03-29T03:35:33;99128.28;;;7.97;69.02
54270;BME280;40181;51.560;13.000;2024-03-29T03:38:00;99130.03;;;8.03;68.97
54270;BME280;40181;51.560;13.000;2024-03-29T03:40:26;99141.38;;;8.14;68.53
54270;BME280;40181;51.560;13.000;2024-03-29T03:42:53;99144.00;;;8.16;68.38
54270;BME280;40181;51.560;13.000;2024-03-29T03:45:19;99140.47;;;8.14;67.77
54270;BME280;40181;51.560;13.000;2024-03-29T03:47:48;99147.47;;;8.16;67.87
54270;BME280;40181;51.560;13.000;2024-03-29T03:50:15;99140.50;;;7.98;67.94
54270;BME280;40181;51.560;13.000;2024-03-29T03:52:41;99135.25;;;8.20;67.74
54270;BME280;40181;51.560;13.000;2024-03-29T03:55:08;99127.44;;;8.26;67.17
54270;BME280;40181;51.560;13.000;2024-03-29T03:57:35;99130.91;;;8.02;67.71
54270;BME280;40181;51.560;13.000;2024-03-29T04:00:01;99113.47;;;8.16;68.07
54270;BME280;40181;51.560;13.000;2024-03-29T04:02:28;99112.56;;;8.31;66.84
54270;BME280;40181;51.560;13.000;2024-03-29T04:04:57;99112.59;;;8.39;66.69
54270;BME280;40181;51.560;13.000;2024-03-29T04:07:25;99119.53;;;8.48;65.95
54270;BME280;40181;51.560;13.000;2024-03-29T04:09:51;99110.81;;;8.69;65.85
54270;BME280;40181;51.560;13.000;2024-03-29T04:12:18;99109.09;;;8.62;65.54
54270;BME280;40181;51.560;13.000;2024-03-29T04:14:45;99095.97;;;8.71;65.78
54270;BME280;40181;51.560;13.000;2024-03-29T04:17:12;99097.72;;;8.72;65.70
54270;BME280;40181;51.560;13.000;2024-03-29T04:19:38;99104.69;;;8.80;65.52
54270;BME280;40181;51.560;13.000;2024-03-29T04:22:07;99098.63;;;8.70;65.41
54270;BME280;40181;51.560;13.000;2024-03-29T04:24:34;99090.75;;;8.62;65.06
54270;BME280;40181;51.560;13.000;2024-03-29T04:27:00;99102.13;;;8.69;65.27
54270;BME280;40181;51.560;13.000;2024-03-29T04:29:27;99095.09;;;8.76;64.71
54270;BME280;40181;51.560;13.000;2024-03-29T04:31:53;99103.88;;;8.53;66.42
54270;BME280;40181;51.560;13.000;2024-03-29T04:34:20;99108.22;;;8.40;66.50
54270;BME280;40181;51.560;13.000;2024-03-29T04:36:47;99099.53;;;8.21;67.52
54270;BME280;40181;51.560;13.000;2024-03-29T04:39:16;99103.00;;;8.34;67.31
54270;BME280;40181;51.560;13.000;2024-03-29T04:41:42;99094.25;;;8.27;67.89
54270;BME280;40181;51.560;13.000;2024-03-29T04:44:11;99088.16;;;8.29;67.98
54270;BME280;40181;51.560;13.000;2024-03-29T04:46:38;99099.50;;;8.19;68.23
54270;BME280;40181;51.560;13.000;2024-03-29T04:49:05;99101.25;;;8.20;68.38
54270;BME280;40181;51.560;13.000;2024-03-29T04:51:31;99104.75;;;8.17;68.50
54270;BME280;40181;51.560;13.000;2024-03-29T04:53:58;99094.28;;;8.14;69.03
54270;BME280;40181;51.560;13.000;2024-03-29T04:56:27;99095.16;;;8.13;68.95
54270;BME280;40181;51.560;13.000;2024-03-29T04:58:53;99097.75;;;7.74;70.47
54270;BME280;40181;51.560;13.000;2024-03-29T05:01:20;99100.38;;;7.79;70.07
54270;BME280;40181;51.560;13.000;2024-03-29T05:03:47;99096.00;;;7.91;70.10
54270;BME280;40181;51.560;13.000;2024-03-29T05:06:13;99088.19;;;7.97;70.02
54270;BME280;40181;51.560;13.000;2024-03-29T05:08:40;99096.88;;;7.99;70.29
54270;BME280;40181;51.560;13.000;2024-03-29T05:11:06;99103.84;;;7.86;70.02
54270;BME280;40181;51.560;13.000;2024-03-29T05:13:35;99092.47;;;7.54;71.65
54270;BME280;40181;51.560;13.000;2024-03-29T05:16:02;99091.66;;;7.82;70.91
54270;BME280;40181;51.560;13.000;2024-03-29T05:18:29;99089.00;;;7.69;71.46
54270;BME280;40181;51.560;13.000;2024-03-29T05:20:56;99089.00;;;7.60;72.70
54270;BME280;40181;51.560;13.000;2024-03-29T05:23:22;99088.16;;;7.66;73.11
54270;BME280;40181;51.560;13.000;2024-03-29T05:25:49;99078.53;;;7.55;73.00
54270;BME280;40181;51.560;13.000;2024-03-29T05:28:16;99087.28;;;7.79;72.98
54270;BME280;40181;51.560;13.000;2024-03-29T05:30:45;99085.56;;;7.80;73.35
54270;BME280;40181;51.560;13.000;2024-03-29T05:33:12;99097.75;;;7.73;72.82
54270;BME280;40181;51.560;13.000;2024-03-29T05:35:38;99107.31;;;7.71;73.06
54270;BME280;40181;51.560;13.000;2024-03-29T05:38:05;99123.00;;;7.63;72.66
54270;BME280;40181;51.560;13.000;2024-03-29T05:40:32;99120.44;;;7.82;72.15
54270;BME280;40181;51.560;13.000;2024-03-29T05:42:58;99133.47;;;7.80;72.09
54270;BME280;40181;51.560;13.000;2024-03-29T05:45:25;99149.19;;;7.94;72.10
54270;BME280;40181;51.560;13.000;2024-03-29T05:47:56;99172.72;;;7.99;71.70
54270;BME280;40181;51.560;13.000;2024-03-29T05:50:24;99176.19;;;7.92;72.58
54270;BME280;40181;51.560;13.000;2024-03-29T05:52:52;99177.06;;;7.83;72.89
54270;BME280;40181;51.560;13.000;2024-03-29T05:55:18;99174.47;;;7.87;73.92
54270;BME280;40181;51.560;13.000;2024-03-29T05:57:45;99169.25;;;8.05;73.56
54270;BME280;40181;51.560;13.000;2024-03-29T06:00:13;99171.88;;;8.05;73.23
54270;BME280;40181;51.560;13.000;2024-03-29T06:02:40;99164.91;;;8.13;72.46
54270;BME280;40181;51.560;13.000;2024-03-29T06:05:10;99159.66;;;8.17;71.17
54270;BME280;40181;51.560;13.000;2024-03-29T06:07:37;99171.88;;;8.03;70.44
54270;BME280;40181;51.560;13.000;2024-03-29T06:10:04;99165.81;;;8.20;70.40
54270;BME280;40181;51.560;13.000;2024-03-29T06:12:31;99184.97;;;8.26;70.48
54270;BME280;40181;51.560;13.000;2024-03-29T06:14:58;99193.72;;;8.39;70.32
54270;BME280;40181;51.560;13.000;2024-03-29T06:17:40;99198.06;;;8.25;70.18
54270;BME280;40181;51.560;13.000;2024-03-29T06:20:09;99162.31;;;8.07;70.08
54270;BME280;40181;51.560;13.000;2024-03-29T06:22:36;99182.38;;;8.17;69.99
54270;BME280;40181;51.560;13.000;2024-03-29T06:25:04;99191.09;;;8.30;69.62
54270;BME280;40181;51.560;13.000;2024-03-29T06:27:31;99183.25;;;8.60;69.19
54270;BME280;40181;51.560;13.000;2024-03-29T06:29:58;99170.19;;;8.67;69.06
54270;BME280;40181;51.560;13.000;2024-03-29T06:32:24;99170.19;;;8.69;69.02
54270;BME280;40181;51.560;13.000;2024-03-29T06:34:51;99169.28;;;8.82;69.14
54270;BME280;40181;51.560;13.000;2024-03-29T06:37:21;99165.78;;;8.72;70.09
54270;BME280;40181;51.560;13.000;2024-03-29T06:39:48;99186.75;;;8.80;69.11
54270;BME280;40181;51.560;13.000;2024-03-29T06:42:14;99192.81;;;8.85;68.81
54270;BME280;40181;51.560;13.000;2024-03-29T06:44:41;99177.13;;;8.92;68.89
54270;BME280;40181;51.560;13.000;2024-03-29T06:47:08;99177.13;;;8.93;68.76
54270;BME280;40181;51.560;13.000;2024-03-29T06:49:35;99183.22;;;9.02;69.30
54270;BME280;40181;51.560;13.000;2024-03-29T06:52:01;99190.19;;;8.99;70.05
54270;BME280;40181;51.560;13.000;2024-03-29T06:54:31;99183.19;;;9.05;69.57
54270;BME280;40181;51.560;13.000;2024-03-29T06:56:58;99183.19;;;9.03;68.80
54270;BME280;40181;51.560;13.000;2024-03-29T06:59:24;99181.47;;;9.01;68.76
54270;BME280;40181;51.560;13.000;2024-03-29T07:01:51;99180.56;;;9.08;69.19
54270;BME280;40181;51.560;13.000;2024-03-29T07:04:18;99177.06;;;9.09;68.92
54270;BME280;40181;51.560;13.000;2024-03-29T07:06:45;99184.03;;;9.11;69.23
54270;BME280;40181;51.560;13.000;2024-03-29T07:09:12;99172.66;;;9.17;70.10
54270;BME280;40181;51.560;13.000;2024-03-29T07:11:41;99170.06;;;9.12;69.71
54270;BME280;40181;51.560;13.000;2024-03-29T07:14:08;99176.16;;;9.24;69.72
54270;BME280;40181;51.560;13.000;2024-03-29T07:16:34;99168.28;;;9.22;68.71
54270;BME280;40181;51.560;13.000;2024-03-29T07:19:01;99166.59;;;9.12;69.24
54270;BME280;40181;51.560;13.000;2024-03-29T07:21:27;99166.59;;;9.12;69.65
54270;BME280;40181;51.560;13.000;2024-03-29T07:23:54;99160.41;;;9.25;70.65
54270;BME280;40181;51.560;13.000;2024-03-29T07:26:20;99170.06;;;9.17;70.24
54270;BME280;40181;51.560;13.000;2024-03-29T07:28:50;99163.00;;;9.35;68.85
54270;BME280;40181;51.560;13.000;2024-03-29T07:31:17;99155.19;;;9.24;68.87
54270;BME280;40181;51.560;13.000;2024-03-29T07:33:43;99152.53;;;9.30;68.92
54270;BME280;40181;51.560;13.000;2024-03-29T07:36:10;99163.91;;;9.26;68.66
54270;BME280;40181;51.560;13.000;2024-03-29T07:38:36;99167.41;;;9.28;68.66
54270;BME280;40181;51.560;13.000;2024-03-29T07:41:03;99169.97;;;9.40;68.39
54270;BME280;40181;51.560;13.000;2024-03-29T07:43:37;99172.53;;;9.54;69.09
54270;BME280;40181;51.560;13.000;2024-03-29T07:46:08;99183.94;;;9.47;68.66
54270;BME280;40181;51.560;13.000;2024-03-29T07:48:35;99183.88;;;9.53;69.68
54270;BME280;40181;51.560;13.000;2024-03-29T07:51:02;99186.47;;;9.58;69.60
54270;BME280;40181;51.560;13.000;2024-03-29T07:53:28;99181.28;;;9.49;68.88
54270;BME280;40181;51.560;13.000;2024-03-29T07:55:55;99183.00;;;9.56;69.11
54270;BME280;40181;51.560;13.000;2024-03-29T07:58:22;99196.13;;;9.58;68.60
54270;BME280;40181;51.560;13.000;2024-03-29T08:00:49;99210.06;;;9.66;68.92
54270;BME280;40181;51.560;13.000;2024-03-29T08:03:19;99219.75;;;9.48;67.86
54270;BME280;40181;51.560;13.000;2024-03-29T08:05:56;99212.69;;;9.63;68.39
54270;BME280;40181;51.560;13.000;2024-03-29T08:08:23;99225.88;;;9.46;68.26
54270;BME280;40181;51.560;13.000;2024-03-29T08:10:50;99222.31;;;9.64;68.35
54270;BME280;40181;51.560;13.000;2024-03-29T08:13:17;99231.06;;;9.53;69.29
54270;BME280;40181;51.560;13.000;2024-03-29T08:15:43;99240.72;;;9.42;69.37
54270;BME280;40181;51.560;13.000;2024-03-29T08:18:13;99232.81;;;9.58;69.27
54270;BME280;40181;51.560;13.000;2024-03-29T08:20:42;99232.81;;;9.56;69.91
54270;BME280;40181;51.560;13.000;2024-03-29T08:23:09;99242.44;;;9.54;70.58
54270;BME280;40181;51.560;13.000;2024-03-29T08:25:35;99242.41;;;9.63;70.42
54270;BME280;40181;51.560;13.000;2024-03-29T08:28:02;99252.03;;;9.66;70.68
54270;BME280;40181;51.560;13.000;2024-03-29T08:30:29;99245.81;;;9.87;70.55
54270;BME280;40181;51.560;13.000;2024-03-29T08:32:57;99256.28;;;9.90;70.91
54270;BME280;40181;51.560;13.000;2024-03-29T08:35:23;99251.00;;;9.93;69.05
54270;BME280;40181;51.560;13.000;2024-03-29T08:37:52;99240.50;;;10.01;66.91
54270;BME280;40181;51.560;13.000;2024-03-29T08:40:19;99250.06;;;10.04;65.50
54270;BME280;40181;51.560;13.000;2024-03-29T08:42:46;99250.91;;;10.15;65.56
54270;BME280;40181;51.560;13.000;2024-03-29T08:45:12;99248.19;;;10.26;65.95
54270;BME280;40181;51.560;13.000;2024-03-29T08:47:39;99258.69;;;10.26;65.40
54270;BME280;40181;51.560;13.000;2024-03-29T08:50:06;99279.72;;;10.24;64.93
54270;BME280;40181;51.560;13.000;2024-03-29T08:52:33;99277.91;;;10.34;64.55
54270;BME280;40181;51.560;13.000;2024-03-29T08:55:03;99262.13;;;10.41;65.79
54270;BME280;40181;51.560;13.000;2024-03-29T08:57:31;99267.38;;;10.41;66.08
54270;BME280;40181;51.560;13.000;2024-03-29T08:59:58;99267.47;;;10.25;66.93
54270;BME280;40181;51.560;13.000;2024-03-29T09:02:25;99267.41;;;10.34;69.75
54270;BME280;40181;51.560;13.000;2024-03-29T09:04:53;99272.66;;;10.42;70.55
54270;BME280;40181;51.560;13.000;2024-03-29T09:07:20;99257.75;;;10.38;70.98
54270;BME280;40181;51.560;13.000;2024-03-29T09:09:47;99244.69;;;10.32;72.64
54270;BME280;40181;51.560;13.000;2024-03-29T09:12:17;99256.78;;;10.55;72.65
54270;BME280;40181;51.560;13.000;2024-03-29T09:14:44;99240.16;;;10.56;73.10
54270;BME280;40181;51.560;13.000;2024-03-29T09:17:10;99226.25;;;10.40;71.34
54270;BME280;40181;51.560;13.000;2024-03-29T09:19:37;99208.59;;;10.60;71.48
54270;BME280;40181;51.560;13.000;2024-03-29T09:22:03;99194.69;;;10.47;72.59
54270;BME280;40181;51.560;13.000;2024-03-29T09:24:31;99190.22;;;10.62;74.08
54270;BME280;40181;51.560;13.000;2024-03-29T09:26:58;99168.44;;;10.49;74.02
54270;BME280;40181;51.560;13.000;2024-03-29T09:29:27;99178.13;;;10.37;75.90
54270;BME280;40181;51.560;13.000;2024-03-29T09:31:54;99168.41;;;10.54;76.78
54270;BME280;40181;51.560;13.000;2024-03-29T09:34:21;99159.69;;;10.51;77.75
54270;BME280;40181;51.560;13.000;2024-03-29T09:36:47;99165.94;;;10.32;78.42
54270;BME280;40181;51.560;13.000;2024-03-29T09:39:14;99169.38;;;10.45;78.68
54270;BME280;40181;51.560;13.000;2024-03-29T09:41:44;99183.41;;;10.37;78.30
54270;BME280;40181;51.560;13.000;2024-03-29T09:44:11;99184.28;;;10.35;77.83
54270;BME280;40181;51.560;13.000;2024-03-29T09:46:41;99205.47;;;10.07;77.84
54270;BME280;40181;51.560;13.000;2024-03-29T09:49:09;99191.25;;;10.37;76.78
54270;BME280;40181;51.560;13.000;2024-03-29T09:51:39;99208.75;;;10.40;78.93
54270;BME280;40181;51.560;13.000;2024-03-29T09:54:09;99188.47;;;10.62;76.00
54270;BME280;40181;51.560;13.000;2024-03-29T09:56:37;99185.94;;;10.50;77.59
54270;BME280;40181;51.560;13.000;2024-03-29T09:59:04;99176.25;;;10.60;78.84
54270;BME280;40181;51.560;13.000;2024-03-29T10:01:30;99161.38;;;10.57;79.65
54270;BME280;40181;51.560;13.000;2024-03-29T10:04:00;99140.31;;;10.63;79.59
54270;BME280;40181;51.560;13.000;2024-03-29T10:06:28;99130.56;;;10.73;79.85
54270;BME280;40181;51.560;13.000;2024-03-29T10:08:55;99135.97;;;10.61;79.12
54270;BME280;40181;51.560;13.000;2024-03-29T10:11:22;99131.66;;;10.54;79.13
54270;BME280;40181;51.560;13.000;2024-03-29T10:13:49;99120.16;;;10.67;79.02
54270;BME280;40181;51.560;13.000;2024-03-29T10:16:18;99119.41;;;10.51;77.98
54270;BME280;40181;51.560;13.000;2024-03-29T10:18:47;99107.97;;;10.58;76.38
54270;BME280;40181;51.560;13.000;2024-03-29T10:21:16;99100.00;;;10.68;76.36
54270;BME280;40181;51.560;13.000;2024-03-29T10:23:43;99109.69;;;10.61;76.46
54270;BME280;40181;51.560;13.000;2024-03-29T10:26:09;99106.91;;;10.76;77.31
54270;BME280;40181;51.560;13.000;2024-03-29T10:28:36;99109.47;;;10.83;78.22
54270;BME280;40181;51.560;13.000;2024-03-29T10:31:05;99108.50;;;10.90;78.82
54270;BME280;40181;51.560;13.000;2024-03-29T10:33:32;99097.09;;;10.94;78.27
54270;BME280;40181;51.560;13.000;2024-03-29T10:36:00;99106.66;;;10.97;76.41
54270;BME280;40181;51.560;13.000;2024-03-29T10:38:30;99100.63;;;10.91;77.45
54270;BME280;40181;51.560;13.000;2024-03-29T10:40:57;99105.94;;;10.84;75.74
54270;BME280;40181;51.560;13.000;2024-03-29T10:43:24;99084.81;;;10.93;74.54
54270;BME280;40181;51.560;13.000;2024-03-29T10:45:51;99093.53;;;10.97;75.85
54270;BME280;40181;51.560;13.000;2024-03-29T10:48:20;99090.84;;;11.01;74.66
54270;BME280;40181;51.560;13.000;2024-03-29T10:50:48;99100.47;;;11.02;72.92
54270;BME280;40181;51.560;13.000;2024-03-29T10:53:16;99100.47;;;11.05;66.89
54270;BME280;40181;51.560;13.000;2024-03-29T10:55:46;99091.50;;;11.19;69.00
54270;BME280;40181;51.560;13.000;2024-03-29T10:58:14;99094.97;;;11.23;66.29
54270;BME280;40181;51.560;13.000;2024-03-29T11:00:46;99101.97;;;11.25;62.88
54270;BME280;40181;51.560;13.000;2024-03-29T11:03:17;99076.50;;;11.29;62.48
54270;BME280;40181;51.560;13.000;2024-03-29T11:05:47;99084.16;;;11.46;60.10
54270;BME280;40181;51.560;13.000;2024-03-29T11:08:19;99093.88;;;11.39;57.62
54270;BME280;40181;51.560;13.000;2024-03-29T11:10:51;99111.38;;;11.42;60.07
54270;BME280;40181;51.560;13.000;2024-03-29T11:13:25;99106.91;;;11.48;60.08
54270;BME280;40181;51.560;13.000;2024-03-29T11:15:55;99131.41;;;11.52;60.77
54270;BME280;40181;51.560;13.000;2024-03-29T11:18:22;99111.13;;;11.60;59.08
54270;BME280;40181;51.560;13.000;2024-03-29T11:20:49;99111.91;;;11.67;59.31
54270;BME280;40181;51.560;13.000;2024-03-29T11:23:18;99113.72;;;11.63;60.19
54270;BME280;40181;51.560;13.000;2024-03-29T11:25:51;99117.91;;;11.77;59.06
54270;BME280;40181;51.560;13.000;2024-03-29T11:28:23;99124.09;;;11.74;59.45
54270;BME280;40181;51.560;13.000;2024-03-29T11:30:53;99115.28;;;11.77;58.73
54270;BME280;40181;51.560;13.000;2024-03-29T11:33:31;99115.16;;;11.85;58.42
54270;BME280;40181;51.560;13.000;2024-03-29T11:35:59;99118.53;;;11.95;55.45
54270;BME280;40181;51.560;13.000;2024-03-29T11:38:36;99110.59;;;11.98;56.74
54270;BME280;40181;51.560;13.000;2024-03-29T11:41:07;99108.72;;;12.08;56.32
54270;BME280;40181;51.560;13.000;2024-03-29T11:43:36;99108.66;;;12.12;55.45
54270;BME280;40181;51.560;13.000;2024-03-29T11:46:05;99109.31;;;12.25;57.45
54270;BME280;40181;51.560;13.000;2024-03-29T11:48:33;99105.78;;;12.26;56.04
54270;BME280;40181;51.560;13.000;2024-03-29T11:51:02;99111.88;;;12.28;57.18
54270;BME280;40181;51.560;13.000;2024-03-29T11:53:30;99099.53;;;12.32;57.16
54270;BME280;40181;51.560;13.000;2024-03-29T11:55:57;99089.75;;;12.40;57.84
54270;BME280;40181;51.560;13.000;2024-03-29T11:58:28;99098.31;;;12.50;55.72
54270;BME280;40181;51.560;13.000;2024-03-29T12:00:56;99096.41;;;12.58;55.72
54270;BME280;40181;51.560;13.000;2024-03-29T12:03:26;99102.50;;;12.62;55.56
54270;BME280;40181;51.560;13.000;2024-03-29T12:05:55;99105.81;;;12.73;55.00
54270;BME280;40181;51.560;13.000;2024-03-29T12:08:24;99101.25;;;12.83;54.83
54270;BME280;40181;51.560;13.000;2024-03-29T12:10:51;99092.50;;;12.81;54.22
54270;BME280;40181;51.560;13.000;2024-03-29T12:13:18;99098.50;;;12.88;55.50
54270;BME280;40181;51.560;13.000;2024-03-29T12:15:47;99115.97;;;12.94;54.31
54270;BME280;40181;51.560;13.000;2024-03-29T12:18:13;99114.22;;;12.93;54.20
54270;BME280;40181;51.560;13.000;2024-03-29T12:20:40;99112.22;;;13.06;53.40
54270;BME280;40181;51.560;13.000;2024-03-29T12:23:08;99105.06;;;13.12;53.41
54270;BME280;40181;51.560;13.000;2024-03-29T12:25:36;99119.09;;;13.14;52.31
54270;BME280;40181;51.560;13.000;2024-03-29T12:28:04;99110.94;;;13.25;51.37
54270;BME280;40181;51.560;13.000;2024-03-29T12:30:32;99097.28;;;13.49;51.13
54270;BME280;40181;51.560;13.000;2024-03-29T12:33:06;99112.44;;;13.39;52.33
54270;BME280;40181;51.560;13.000;2024-03-29T12:35:34;99105.88;;;13.59;51.09
54270;BME280;40181;51.560;13.000;2024-03-29T12:38:01;99108.50;;;13.60;50.94
54270;BME280;40181;51.560;13.000;2024-03-29T12:40:30;99095.00;;;13.73;52.35
54270;BME280;40181;51.560;13.000;2024-03-29T12:42:58;99112.38;;;13.81;52.21
54270;BME280;40181;51.560;13.000;2024-03-29T12:45:25;99114.91;;;13.86;52.81
54270;BME280;40181;51.560;13.000;2024-03-29T12:47:51;99116.69;;;13.87;53.10
54270;BME280;40181;51.560;13.000;2024-03-29T12:50:26;99115.88;;;13.83;52.65
54270;BME280;40181;51.560;13.000;2024-03-29T12:52:56;99090.31;;;13.86;53.28
54270;BME280;40181;51.560;13.000;2024-03-29T12:55:24;99097.81;;;14.03;53.26
54270;BME280;40181;51.560;13.000;2024-03-29T12:57:52;99068.78;;;14.03;54.20
54270;BME280;40181;51.560;13.000;2024-03-29T13:00:19;99089.31;;;13.90;55.71